PWSweather.com
Personal Weather Stations
Station Observations
MARRWS
Allansford VictoriaAU 3277

Allansford VictoriaAU 3277

Lat: -38.4003683814149, Lon: 142.569826841354

Elevation: 36

Station Type: Fine Offset X7062

http://home.vicnet.net.au/~marr/Weather/

Latest ConditionsUpdated 4:40:01 AM GMT+10:10 Wednesday, Jun 29, 2016
Currently Today's Max Today's Min Today's Average
Temperature 52.0°F11.1°C 54.0°F12.2°C 52.0°F11.1°C 53.3°F11.8°C
Dew Point 49.1°F9.5°C 51.7°F10.9°C 49.1°F9.5°C 50.5°F10.3°C
Winds 4.5 mph NW7.2 kmh NW 8.5 mph NW13.7 kmh NW - 5.9 mph 9.5 kmh
Wind Gusts 8.3 mph13.4 kmh 14.5 mph23.3 kmh - -
Humidity 90% 92% 88% 90%
Pressure 30.14 in1020.7 mb 30.15 in1021.0 mb 30.13 in1020.3 mb -
Hour Temp Dew Point Humidity Winds Wind Gusts Pressure Precip Precip Rate Daily Precip Total
04:40 AM 52.0°F11.1°C 49.1°F9.5°C 90% 4.5 mph NW7.2 kmh NW 8.3 mph13.4 kmh 30.14 in1020.7 mb 0.00 in0.0 mm 0.00 in0.0 mm 0.00 in0.0 mm
04:30 AM 52.2°F11.2°C 49.3°F9.6°C 90% 4.4 mph NW7.1 kmh NW 9.2 mph14.8 kmh 30.14 in1020.7 mb 0.00 in0.0 mm 0.00 in0.0 mm 0.00 in0.0 mm
04:20 AM 52.3°F11.3°C 49.5°F9.7°C 90% 4.7 mph NW7.6 kmh NW 9.2 mph14.8 kmh 30.15 in1021.0 mb 0.00 in0.0 mm 0.00 in0.0 mm 0.00 in0.0 mm
04:10 AM 52.3°F11.3°C 49.5°F9.7°C 90% 5.2 mph NW8.4 kmh NW 8.3 mph13.4 kmh 30.14 in1020.7 mb 0.00 in0.0 mm 0.00 in0.0 mm 0.00 in0.0 mm
04:00 AM 52.5°F11.4°C 49.7°F9.8°C 90% 5.4 mph NW8.7 kmh NW 9.2 mph14.8 kmh 30.14 in1020.7 mb 0.00 in0.0 mm 0.00 in0.0 mm 0.00 in0.0 mm
03:50 AM 52.9°F11.6°C 50.0°F10.0°C 90% 5.8 mph NNW9.3 kmh NNW 13.0 mph20.9 kmh 30.14 in1020.7 mb 0.00 in0.0 mm 0.00 in0.0 mm 0.00 in0.0 mm
03:40 AM 53.1°F11.7°C 50.2°F10.1°C 90% 6.4 mph NW10.3 kmh NW 10.7 mph17.2 kmh 30.15 in1021.0 mb 0.00 in0.0 mm 0.00 in0.0 mm 0.00 in0.0 mm
03:30 AM 53.2°F11.8°C 50.4°F10.2°C 90% 6.1 mph NW9.8 kmh NW 13.6 mph21.9 kmh 30.15 in1021.0 mb 0.00 in0.0 mm 0.00 in0.0 mm 0.00 in0.0 mm
03:20 AM 53.4°F11.9°C 50.6°F10.3°C 90% 6.8 mph NW10.9 kmh NW 11.4 mph18.3 kmh 30.14 in1020.7 mb 0.00 in0.0 mm 0.00 in0.0 mm 0.00 in0.0 mm
03:10 AM 53.6°F12.0°C 50.1°F10.1°C 88% 7.7 mph NW12.4 kmh NW 13.6 mph21.9 kmh 30.14 in1020.7 mb 0.00 in0.0 mm 0.00 in0.0 mm 0.00 in0.0 mm
03:00 AM 53.6°F12.0°C 50.1°F10.1°C 88% 7.7 mph NW12.4 kmh NW 13.6 mph21.9 kmh 30.14 in1020.7 mb 0.00 in0.0 mm 0.00 in0.0 mm 0.00 in0.0 mm
02:50 AM 53.6°F12.0°C 50.1°F10.1°C 88% 8.5 mph NW13.7 kmh NW 13.6 mph21.9 kmh 30.14 in1020.7 mb 0.00 in0.0 mm 0.00 in0.0 mm 0.00 in0.0 mm
02:40 AM 53.6°F12.0°C 50.4°F10.2°C 89% 7.5 mph NW12.1 kmh NW 13.6 mph21.9 kmh 30.14 in1020.7 mb 0.00 in0.0 mm 0.00 in0.0 mm 0.00 in0.0 mm
02:30 AM 53.4°F11.9°C 50.6°F10.3°C 90% 7.1 mph NNW11.4 kmh NNW 13.6 mph21.9 kmh 30.13 in1020.3 mb 0.00 in0.0 mm 0.00 in0.0 mm 0.00 in0.0 mm
02:20 AM 53.4°F11.9°C 50.6°F10.3°C 90% 6.4 mph NW10.3 kmh NW 11.4 mph18.3 kmh 30.14 in1020.7 mb 0.00 in0.0 mm 0.00 in0.0 mm 0.00 in0.0 mm
02:10 AM 53.6°F12.0°C 50.4°F10.2°C 89% 6.6 mph NW10.6 kmh NW 14.5 mph23.3 kmh 30.14 in1020.7 mb 0.00 in0.0 mm 0.00 in0.0 mm 0.00 in0.0 mm
02:00 AM 53.4°F11.9°C 50.9°F10.5°C 91% 6.5 mph NW10.5 kmh NW 12.1 mph19.5 kmh 30.14 in1020.7 mb 0.00 in0.0 mm 0.00 in0.0 mm 0.00 in0.0 mm
01:50 AM 53.4°F11.9°C 50.9°F10.5°C 91% 5.3 mph NW8.5 kmh NW 10.7 mph17.2 kmh 30.13 in1020.3 mb 0.00 in0.0 mm 0.00 in0.0 mm 0.00 in0.0 mm
01:40 AM 53.4°F11.9°C 50.9°F10.5°C 91% 6.0 mph NW9.7 kmh NW 13.0 mph20.9 kmh 30.13 in1020.3 mb 0.00 in0.0 mm 0.00 in0.0 mm 0.00 in0.0 mm
01:30 AM 53.4°F11.9°C 50.9°F10.5°C 91% 5.3 mph NW8.5 kmh NW 11.4 mph18.3 kmh 30.13 in1020.3 mb 0.00 in0.0 mm 0.00 in0.0 mm 0.00 in0.0 mm
01:20 AM 53.4°F11.9°C 50.9°F10.5°C 91% 5.2 mph NNW8.4 kmh NNW 11.4 mph18.3 kmh 30.13 in1020.3 mb 0.00 in0.0 mm 0.00 in0.0 mm 0.00 in0.0 mm
01:10 AM 53.6°F12.0°C 51.0°F10.6°C 91% 5.7 mph NW9.2 kmh NW 11.4 mph18.3 kmh 30.13 in1020.3 mb 0.00 in0.0 mm 0.00 in0.0 mm 0.00 in0.0 mm
01:00 AM 53.6°F12.0°C 51.0°F10.6°C 91% 4.9 mph NW7.9 kmh NW 10.7 mph17.2 kmh 30.13 in1020.3 mb 0.00 in0.0 mm 0.00 in0.0 mm 0.00 in0.0 mm
12:50 AM 53.6°F12.0°C 51.0°F10.6°C 91% 7.7 mph NW12.4 kmh NW 13.0 mph20.9 kmh 30.13 in1020.3 mb 0.00 in0.0 mm 0.00 in0.0 mm 0.00 in0.0 mm
12:40 AM 53.8°F12.1°C 51.2°F10.7°C 91% 5.1 mph NW8.2 kmh NW 13.0 mph20.9 kmh 30.14 in1020.7 mb 0.00 in0.0 mm 0.00 in0.0 mm 0.00 in0.0 mm
12:30 AM 53.8°F12.1°C 51.5°F10.8°C 92% 4.6 mph NW7.4 kmh NW 8.3 mph13.4 kmh 30.13 in1020.3 mb 0.00 in0.0 mm 0.00 in0.0 mm 0.00 in0.0 mm
12:20 AM 53.8°F12.1°C 51.5°F10.8°C 92% 4.9 mph NW7.9 kmh NW 9.2 mph14.8 kmh 30.13 in1020.3 mb 0.00 in0.0 mm 0.00 in0.0 mm 0.00 in0.0 mm
12:10 AM 53.8°F12.1°C 51.5°F10.8°C 92% 4.4 mph NNW7.1 kmh NNW 9.2 mph14.8 kmh 30.14 in1020.7 mb 0.00 in0.0 mm 0.00 in0.0 mm 0.00 in0.0 mm
12:00 AM 54.0°F12.2°C 51.7°F10.9°C 92% 4.7 mph NW7.6 kmh NW 8.3 mph13.4 kmh 30.14 in1020.7 mb 0.00 in0.0 mm 0.00 in0.0 mm 0.00 in0.0 mm